TimeAKDT,TemperatureF,Dew PointF,Humidity,Sea Level PressureIn,VisibilityMPH,Wind Direction,Wind SpeedMPH,Gust SpeedMPH,PrecipitationIn,Events,Conditions,WindDirDegrees,DateUTC
12:53 AM,52.0,48.0,86,30.23,10.0,NW,15.0,-,N/A,,Overcast,320,2012-10-08 08:53:00
1:53 AM,52.0,48.0,86,30.23,10.0,NW,15.0,-,N/A,,Overcast,320,2012-10-08 09:53:00
2:53 AM,52.0,48.0,86,30.22,10.0,NNW,10.4,-,N/A,,Overcast,340,2012-10-08 10:53:00
3:53 AM,52.0,48.0,86,30.22,10.0,NNW,11.5,-,N/A,,Overcast,340,2012-10-08 11:53:00
4:30 AM,51.8,48.2,88,30.21,10.0,NW,12.7,-,N/A,,Overcast,310,2012-10-08 12:30:00
4:53 AM,51.1,48.9,92,30.21,10.0,NW,12.7,-,N/A,,Overcast,320,2012-10-08 12:53:00
5:53 AM,52.0,48.0,86,30.20,10.0,NNW,11.5,-,N/A,,Overcast,340,2012-10-08 13:53:00
6:53 AM,52.0,48.9,89,30.19,10.0,NNW,9.2,-,N/A,,Overcast,330,2012-10-08 14:53:00
7:53 AM,51.1,48.9,92,30.19,9.0,NW,11.5,-,0.00,,Overcast,320,2012-10-08 15:53:00
8:53 AM,52.0,48.9,89,30.18,9.0,NW,9.2,-,N/A,,Overcast,310,2012-10-08 16:53:00
9:53 AM,52.0,48.9,89,30.18,10.0,NW,13.8,-,N/A,,Overcast,310,2012-10-08 17:53:00
10:53 AM,53.1,48.0,83,30.17,10.0,NW,17.3,-,N/A,,Mostly Cloudy,310,2012-10-08 18:53:00
11:27 AM,53.6,48.2,82,30.16,10.0,NW,16.1,-,N/A,,Mostly Cloudy,320,2012-10-08 19:27:00
11:53 AM,53.1,48.9,86,30.16,10.0,NW,13.8,-,N/A,,Mostly Cloudy,310,2012-10-08 19:53:00
12:53 PM,53.1,48.9,86,30.15,10.0,NW,16.1,-,N/A,,Scattered Clouds,310,2012-10-08 20:53:00
1:53 PM,54.0,48.0,80,30.15,10.0,NW,18.4,-,N/A,,Scattered Clouds,320,2012-10-08 21:53:00
2:53 PM,55.0,48.0,77,30.14,10.0,NW,18.4,-,N/A,,Scattered Clouds,320,2012-10-08 22:53:00
3:53 PM,55.0,48.0,77,30.14,10.0,NW,19.6,-,N/A,,Scattered Clouds,320,2012-10-08 23:53:00
4:53 PM,54.0,46.9,77,30.13,10.0,NW,17.3,-,N/A,,Scattered Clouds,320,2012-10-09 00:53:00
5:53 PM,52.0,46.9,83,30.14,10.0,NNW,12.7,-,N/A,,Scattered Clouds,330,2012-10-09 01:53:00
6:53 PM,52.0,46.9,83,30.13,10.0,NW,9.2,-,N/A,,Scattered Clouds,310,2012-10-09 02:53:00
7:03 PM,51.8,48.2,88,30.13,10.0,WNW,10.4,-,N/A,,Mostly Cloudy,300,2012-10-09 03:03:00
7:53 PM,52.0,48.9,89,30.13,10.0,West,8.1,-,N/A,,Mostly Cloudy,280,2012-10-09 03:53:00
8:53 PM,52.0,48.9,89,30.13,10.0,West,9.2,-,N/A,,Overcast,280,2012-10-09 04:53:00
9:53 PM,52.0,48.9,89,30.13,10.0,NW,11.5,-,N/A,,Overcast,310,2012-10-09 05:53:00
10:53 PM,51.1,48.9,92,30.11,10.0,WNW,10.4,-,N/A,,Overcast,300,2012-10-09 06:53:00
11:53 PM,51.8,48.2,88,30.10,10.0,NW,12.7,-,N/A,,Overcast,310,2012-10-09 07:53:00